Time;durP1;ratioP1;P1;durP2;ratioP2;P2;SDS_P1;SDS_P2;PMS_P1;PMS_P2;Temp;Humidity;BMP_temperature;BMP_pressure;BME280_temperature;BME280_humidity;BME280_pressure;Samples;Min_cycle;Max_cycle;Signal;HPM_P1;HPM_P2
2022/03/13 00:00:23;;;;;;;17.45;9.38;;;6.90;70.50;;;;;;5075522;28;20025;-69
2022/03/13 00:02:51;;;;;;;17.75;10.52;;;6.90;70.80;;;;;;5052149;28;20036;-68
2022/03/13 00:05:17;;;;;;;21.15;9.85;;;6.90;70.90;;;;;;5100010;22;20556;-64
2022/03/13 00:07:47;;;;;;;17.80;10.70;;;6.90;71.00;;;;;;5073284;28;20116;-64
2022/03/13 00:10:17;;;;;;;19.67;10.38;;;7.00;71.00;;;;;;5075304;28;20346;-63
2022/03/13 00:12:46;;;;;;;17.02;10.52;;;7.00;70.90;;;;;;5074994;28;20028;-63
2022/03/13 00:15:12;;;;;;;18.45;10.10;;;7.00;71.40;;;;;;5074719;28;20029;-64
2022/03/13 00:17:38;;;;;;;22.23;11.63;;;7.00;70.70;;;;;;5074413;28;20058;-64
2022/03/13 00:20:08;;;;;;;22.17;11.23;;;7.10;70.50;;;;;;5074582;28;20492;-63
2022/03/13 00:22:35;;;;;;;21.17;11.18;;;7.10;70.50;;;;;;5074910;28;20546;-63
2022/03/13 00:25:06;;;;;;;21.27;11.23;;;7.10;70.40;;;;;;5074636;28;20028;-65
2022/03/13 00:27:34;;;;;;;21.02;11.25;;;7.20;70.50;;;;;;5074607;28;20108;-63
2022/03/13 00:30:01;;;;;;;21.88;11.27;;;7.20;70.30;;;;;;5074451;28;20045;-65
2022/03/13 00:32:27;;;;;;;19.77;10.45;;;7.20;70.40;;;;;;5074576;28;20032;-64
2022/03/13 00:34:52;;;;;;;22.23;11.20;;;7.10;70.30;;;;;;5074433;28;20016;-64
2022/03/13 00:37:18;;;;;;;22.90;11.63;;;7.10;70.30;;;;;;5074366;28;20078;-64
2022/03/13 00:39:46;;;;;;;18.13;10.98;;;7.20;70.40;;;;;;5074307;28;20058;-65
2022/03/13 00:42:15;;;;;;;21.77;10.88;;;7.10;70.40;;;;;;5074327;28;20032;-63
2022/03/13 00:44:41;;;;;;;18.92;10.48;;;7.10;70.40;;;;;;5074019;28;20025;-63
2022/03/13 00:47:07;;;;;;;15.48;10.13;;;7.00;70.20;;;;;;5074251;28;20033;-64
2022/03/13 00:49:33;;;;;;;16.80;10.23;;;7.00;70.30;;;;;;5072562;28;20031;-63
2022/03/13 00:51:59;;;;;;;18.58;10.80;;;6.90;70.50;;;;;;5074373;28;20527;-64
2022/03/13 00:54:25;;;;;;;20.88;11.50;;;6.80;70.70;;;;;;5072700;28;20033;-63
2022/03/13 00:56:51;;;;;;;20.27;11.33;;;6.80;70.80;;;;;;5073819;28;20028;-63
2022/03/13 00:59:17;;;;;;;22.77;10.90;;;6.80;71.00;;;;;;5077359;28;20055;-64
2022/03/13 01:01:43;;;;;;;20.10;10.90;;;6.70;70.90;;;;;;5077099;28;20104;-63
2022/03/13 01:04:08;;;;;;;18.67;10.65;;;6.70;70.80;;;;;;5075273;28;20056;-63
2022/03/13 01:06:34;;;;;;;23.30;11.57;;;6.60;70.90;;;;;;5073752;28;20602;-63
2022/03/13 01:09:00;;;;;;;19.97;12.30;;;6.60;71.00;;;;;;5071465;28;20037;-63
2022/03/13 01:11:25;;;;;;;19.67;11.07;;;6.60;70.80;;;;;;5073608;28;20024;-63
2022/03/13 01:13:51;;;;;;;21.73;11.87;;;6.60;70.90;;;;;;5071978;28;20115;-63
2022/03/13 01:16:23;;;;;;;20.42;11.60;;;6.50;70.90;;;;;;5072861;28;20028;-63
2022/03/13 01:18:51;;;;;;;19.35;11.70;;;6.50;71.00;;;;;;5073755;28;20078;-62
2022/03/13 01:21:17;;;;;;;19.23;10.45;;;6.40;71.10;;;;;;5073174;28;20411;-64
2022/03/13 01:24:01;;;;;;;21.38;12.05;;;6.40;71.10;;;;;;5073607;28;20051;-63
2022/03/13 01:26:34;;;;;;;18.85;10.75;;;6.40;71.10;;;;;;5073860;28;20021;-64
2022/03/13 01:29:01;;;;;;;21.95;11.43;;;6.40;71.30;;;;;;5072170;28;20078;-64
2022/03/13 01:31:31;;;;;;;;;;;6.30;71.10;;;;;;5074058;28;20063;-63
2022/03/13 01:33:58;;;;;;;20.17;11.00;;;6.30;71.20;;;;;;5073315;28;19912;-64
2022/03/13 01:36:24;;;;;;;22.92;11.23;;;6.30;71.20;;;;;;5073273;28;20032;-64
2022/03/13 01:38:58;;;;;;;20.85;11.23;;;6.20;71.30;;;;;;5071997;28;20048;-64
2022/03/13 01:41:25;;;;;;;20.52;11.75;;;6.20;71.40;;;;;;5072030;28;20048;-64
2022/03/13 01:43:51;;;;;;;19.88;12.00;;;6.10;71.60;;;;;;5073188;28;20075;-63
2022/03/13 01:46:17;;;;;;;20.02;11.07;;;6.10;71.70;;;;;;5071623;28;20487;-64
2022/03/13 01:48:55;;;;;;;19.25;11.52;;;6.10;71.80;;;;;;5073247;28;20031;-63
2022/03/13 01:51:22;;;;;;;21.70;11.32;;;6.00;71.80;;;;;;5073157;28;20077;-65
2022/03/13 01:53:51;;;;;;;24.27;11.70;;;6.00;72.00;;;;;;5072021;28;20025;-63
2022/03/13 01:56:17;;;;;;;23.30;11.68;;;5.90;72.00;;;;;;5073322;28;20607;-63
2022/03/13 01:58:43;;;;;;;19.27;10.73;;;5.90;71.90;;;;;;5072243;28;20369;-63
2022/03/13 02:01:08;;;;;;;25.30;12.13;;;5.90;72.30;;;;;;5073267;28;20032;-63
2022/03/13 02:03:34;;;;;;;25.07;10.87;;;5.80;72.60;;;;;;5073084;28;20021;-63
2022/03/13 02:06:00;;;;;;;21.60;12.30;;;5.80;72.70;;;;;;5071895;28;20044;-63
2022/03/13 02:08:25;;;;;;;22.13;11.77;;;5.70;72.70;;;;;;5073114;28;20035;-64
2022/03/13 02:10:51;;;;;;;21.93;11.80;;;5.70;72.80;;;;;;5071775;28;20367;-63
2022/03/13 02:13:20;;;;;;;23.13;12.13;;;5.70;73.20;;;;;;5073024;28;20103;-63
2022/03/13 02:15:46;;;;;;;23.77;11.48;;;5.60;73.20;;;;;;5073049;28;20025;-63
2022/03/13 02:18:12;;;;;;;20.17;11.50;;;5.60;73.20;;;;;;5073076;28;20050;-62
2022/03/13 02:20:43;;;;;;;22.23;11.68;;;5.50;73.30;;;;;;5073276;28;20532;-64
2022/03/13 02:23:20;;;;;;;19.02;11.68;;;5.70;73.80;;;;;;5075350;28;20029;-63
2022/03/13 02:25:55;;;;;;;23.40;11.57;;;5.80;72.80;;;;;;5076959;28;20090;-64
2022/03/13 02:28:26;;;;;;;23.63;11.80;;;5.70;73.30;;;;;;5076793;28;20043;-63
2022/03/13 02:30:54;;;;;;;18.95;11.02;;;5.60;73.40;;;;;;5076723;28;20074;-63
2022/03/13 02:33:21;;;;;;;22.15;11.77;;;5.50;73.60;;;;;;5076508;28;20020;-63
2022/03/13 02:35:55;;;;;;;19.85;11.00;;;5.50;73.90;;;;;;5075298;28;20082;-64
2022/03/13 02:38:22;;;;;;;20.17;12.35;;;5.50;74.20;;;;;;5076723;28;20017;-63
2022/03/13 02:40:48;;;;;;;19.52;11.20;;;5.50;74.50;;;;;;5076290;28;20559;-64
2022/03/13 02:43:13;;;;;;;23.03;11.33;;;5.50;74.80;;;;;;5076369;28;20057;-63
2022/03/13 02:45:39;;;;;;;20.67;11.90;;;5.70;74.40;;;;;;5074860;28;20298;-62
2022/03/13 02:48:07;;;;;;;20.20;11.57;;;5.70;74.40;;;;;;5076283;28;20029;-62
2022/03/13 02:50:33;;;;;;;21.10;11.48;;;5.60;74.50;;;;;;5074949;28;20056;-63
2022/03/13 02:52:59;;;;;;;20.00;11.38;;;5.60;74.60;;;;;;5074617;28;20029;-63
2022/03/13 02:55:25;;;;;;;21.53;10.33;;;5.50;74.60;;;;;;5076103;28;20035;-64
2022/03/13 02:57:52;;;;;;;21.95;11.20;;;5.40;75.30;;;;;;5076096;28;20027;-62
2022/03/13 03:00:18;;;;;;;19.08;10.45;;;5.40;74.50;;;;;;5075896;28;20016;-62
2022/03/13 03:02:44;;;;;;;19.67;10.80;;;5.30;74.50;;;;;;5076562;28;20379;-63
2022/03/13 03:05:10;;;;;;;22.60;9.90;;;5.30;74.70;;;;;;5075906;28;20125;-63
2022/03/13 03:07:37;;;;;;;20.13;11.10;;;5.30;74.60;;;;;;5075829;28;20031;-63
2022/03/13 03:10:09;;;;;;;19.77;10.75;;;5.20;74.50;;;;;;5075791;28;20058;-63
2022/03/13 03:12:35;;;;;;;23.27;10.90;;;5.20;74.60;;;;;;5076082;28;20016;-64
2022/03/13 03:15:01;;;;;;;21.40;11.80;;;5.10;74.90;;;;;;5075762;28;20146;-63
2022/03/13 03:17:27;;;;;;;24.17;11.20;;;5.10;75.10;;;;;;5075957;28;20033;-64
2022/03/13 03:19:52;;;;;;;24.15;12.15;;;5.00;75.30;;;;;;5076446;28;20422;-63
2022/03/13 03:22:18;;;;;;;20.77;10.80;;;4.90;75.50;;;;;;5076613;28;20033;-62
2022/03/13 03:24:44;;;;;;;24.93;12.83;;;4.90;76.60;;;;;;5075654;28;20036;-64
2022/03/13 03:27:09;;;;;;;22.75;12.23;;;4.90;76.30;;;;;;5075999;28;20062;-62
2022/03/13 03:29:35;;;;;;;24.10;11.30;;;4.80;76.60;;;;;;5074562;28;20024;-61
2022/03/13 03:32:02;;;;;;;21.10;11.77;;;4.80;77.00;;;;;;5074548;28;20027;-63
2022/03/13 03:34:28;;;;;;;21.15;11.27;;;4.80;77.50;;;;;;5074350;28;20259;-64
2022/03/13 03:37:00;;;;;;;20.48;11.60;;;4.70;78.00;;;;;;5076180;28;20464;-64
2022/03/13 03:39:28;;;;;;;22.23;11.77;;;4.70;78.60;;;;;;5074401;28;20024;-64
2022/03/13 03:41:54;;;;;;;23.00;12.20;;;4.70;79.20;;;;;;5075411;28;20074;-64
2022/03/13 03:44:21;;;;;;;;;;;4.70;79.80;;;;;;5076165;28;20350;-63
2022/03/13 03:46:48;;;;;;;22.05;12.10;;;4.70;79.90;;;;;;5075190;28;19904;-63
2022/03/13 03:49:15;;;;;;;22.42;12.60;;;4.80;80.20;;;;;;5075191;28;20025;-63
2022/03/13 03:51:41;;;;;;;21.35;11.23;;;4.80;80.60;;;;;;5075163;28;20528;-63
2022/03/13 03:54:08;;;;;;;25.17;12.50;;;4.80;80.90;;;;;;5075511;28;20158;-63
2022/03/13 03:56:34;;;;;;;22.88;11.93;;;4.90;81.10;;;;;;5073612;28;20078;-63
2022/03/13 03:59:00;;;;;;;18.98;11.43;;;5.20;79.70;;;;;;5075325;28;20522;-63
2022/03/13 04:01:26;;;;;;;24.48;12.88;;;5.40;79.00;;;;;;5074852;28;20029;-64
2022/03/13 04:03:51;;;;;;;22.37;12.57;;;5.30;79.80;;;;;;5075313;28;20021;-63
2022/03/13 04:06:19;;;;;;;23.67;12.45;;;5.20;80.20;;;;;;5077279;28;20058;-64
2022/03/13 04:08:45;;;;;;;27.27;12.65;;;5.10;80.70;;;;;;5080389;28;20055;-62
2022/03/13 04:11:11;;;;;;;25.40;13.68;;;5.10;81.30;;;;;;5076365;28;20048;-62
2022/03/13 04:13:38;;;;;;;25.75;12.27;;;5.00;81.60;;;;;;5073437;28;20032;-62
2022/03/13 04:16:08;;;;;;;21.65;12.40;;;5.00;82.20;;;;;;5074373;28;20074;-63
2022/03/13 04:18:35;;;;;;;23.90;11.77;;;4.90;82.90;;;;;;5074606;28;20074;-63
2022/03/13 04:21:04;;;;;;;22.48;12.10;;;4.90;83.20;;;;;;5073161;28;20055;-64
2022/03/13 04:23:30;;;;;;;22.33;12.23;;;4.80;83.00;;;;;;5074537;28;20020;-63
2022/03/13 04:25:56;;;;;;;22.38;12.50;;;4.90;83.20;;;;;;5072975;28;20024;-63
2022/03/13 04:28:22;;;;;;;24.87;12.20;;;4.80;83.40;;;;;;5074613;28;20485;-63
2022/03/13 04:30:52;;;;;;;22.42;12.60;;;4.80;83.50;;;;;;5076289;28;20017;-63
2022/03/13 04:33:18;;;;;;;25.10;11.73;;;4.80;84.40;;;;;;5074322;28;20025;-63
2022/03/13 04:35:44;;;;;;;21.15;11.60;;;4.70;83.70;;;;;;5074483;28;20032;-63
2022/03/13 04:38:10;;;;;;;26.73;11.57;;;4.70;84.20;;;;;;5074285;28;20029;-64
2022/03/13 04:40:36;;;;;;;23.48;12.10;;;4.60;84.50;;;;;;5074605;28;20021;-63
2022/03/13 04:43:03;;;;;;;21.60;11.30;;;4.60;84.70;;;;;;5074054;28;20078;-63
2022/03/13 04:45:29;;;;;;;24.73;11.60;;;4.50;84.40;;;;;;5074028;28;20017;-63
2022/03/13 04:47:55;;;;;;;22.27;12.70;;;4.50;84.50;;;;;;5074048;28;20040;-63
2022/03/13 04:50:20;;;;;;;19.60;11.50;;;4.60;84.50;;;;;;5074111;28;20078;-63
2022/03/13 04:52:46;;;;;;;20.20;11.50;;;4.50;84.20;;;;;;5074419;28;20542;-61
2022/03/13 04:55:13;;;;;;;25.05;12.68;;;4.50;84.20;;;;;;5074151;28;20032;-62
2022/03/13 04:57:38;;;;;;;22.35;12.20;;;4.50;84.30;;;;;;5074214;28;20124;-63
2022/03/13 05:00:05;;;;;;;21.53;11.43;;;4.40;84.10;;;;;;5073598;28;20481;-63
2022/03/13 05:02:31;;;;;;;21.50;12.07;;;4.40;84.00;;;;;;5073893;28;20157;-62
2022/03/13 05:04:59;;;;;;;21.90;12.10;;;4.30;83.70;;;;;;5072085;28;20035;-62
2022/03/13 05:07:27;;;;;;;19.85;10.63;;;4.30;83.90;;;;;;5072130;28;20039;-62
2022/03/13 05:09:52;;;;;;;20.90;10.98;;;4.30;83.60;;;;;;5072254;28;20431;-62
2022/03/13 05:12:21;;;;;;;20.63;11.10;;;4.30;83.40;;;;;;5074013;28;20029;-62
2022/03/13 05:14:47;;;;;;;20.80;11.18;;;4.30;83.40;;;;;;5072093;28;20027;-63
2022/03/13 05:17:13;;;;;;;21.00;11.43;;;4.20;83.50;;;;;;5072213;28;20108;-63
2022/03/13 05:19:40;;;;;;;19.40;11.00;;;4.20;83.80;;;;;;5073652;28;20377;-63
2022/03/13 05:22:05;;;;;;;19.98;10.90;;;4.20;84.20;;;;;;5074991;28;20254;-63
2022/03/13 05:24:31;;;;;;;20.10;11.27;;;4.50;84.60;;;;;;5074359;28;20566;-62
2022/03/13 05:26:56;;;;;;;29.97;11.57;;;4.50;83.80;;;;;;5073078;28;20087;-63
2022/03/13 05:29:22;;;;;;;22.93;11.97;;;4.50;84.00;;;;;;5072445;28;20029;-63
2022/03/13 05:31:47;;;;;;;25.67;12.90;;;4.40;84.10;;;;;;5073209;28;20021;-63
2022/03/13 05:34:13;;;;;;;22.27;11.60;;;4.40;87.40;;;;;;5073512;28;20025;-62
2022/03/13 05:36:39;;;;;;;21.40;11.90;;;4.30;88.60;;;;;;5071893;28;20115;-62
2022/03/13 05:39:05;;;;;;;20.40;11.30;;;4.30;88.40;;;;;;5071851;28;20477;-63
2022/03/13 05:41:33;;;;;;;22.45;12.13;;;4.30;88.80;;;;;;5071967;28;20028;-64
2022/03/13 05:43:59;;;;;;;22.48;12.68;;;4.30;89.30;;;;;;5073648;28;20021;-63
2022/03/13 05:46:24;;;;;;;21.98;12.90;;;4.20;90.00;;;;;;5073154;28;20017;-63
2022/03/13 05:48:50;;;;;;;25.07;13.33;;;4.20;90.50;;;;;;5073218;28;20059;-63
2022/03/13 05:51:15;;;;;;;24.17;12.43;;;4.10;91.00;;;;;;5072900;28;20099;-63
2022/03/13 05:53:41;;;;;;;21.40;11.50;;;4.00;91.20;;;;;;5073526;28;20031;-63
2022/03/13 05:56:07;;;;;;;22.97;11.73;;;4.00;91.20;;;;;;5075037;28;20035;-64
2022/03/13 05:58:33;;;;;;;19.83;11.50;;;4.00;91.50;;;;;;5077302;28;20251;-63
2022/03/13 06:01:05;;;;;;;23.03;12.20;;;4.00;91.80;;;;;;5075874;28;20017;-64
2022/03/13 06:03:38;;;;;;;21.90;12.57;;;4.00;92.40;;;;;;5077645;28;20338;-63
2022/03/13 06:06:07;;;;;;;22.42;12.18;;;4.00;92.80;;;;;;5075702;28;20094;-64
2022/03/13 06:08:34;;;;;;;26.90;12.27;;;4.00;92.70;;;;;;5076090;28;20056;-63
2022/03/13 06:10:59;;;;;;;25.15;12.95;;;4.00;92.90;;;;;;5075753;28;20031;-63
2022/03/13 06:13:25;;;;;;;21.47;11.70;;;4.20;93.10;;;;;;5075755;28;20020;-63
2022/03/13 06:15:50;;;;;;;26.77;12.57;;;4.30;92.70;;;;;;5076886;28;20085;-63
2022/03/13 06:18:16;;;;;;;26.13;11.60;;;4.20;92.70;;;;;;5076959;28;20017;-62
2022/03/13 06:20:43;;;;;;;23.25;12.05;;;4.10;93.40;;;;;;5076518;28;20528;-64
2022/03/13 06:23:10;;;;;;;22.27;12.32;;;4.10;93.90;;;;;;5077103;28;20035;-63
2022/03/13 06:25:36;;;;;;;21.85;11.85;;;4.20;94.10;;;;;;5076873;28;20488;-64
2022/03/13 06:28:01;;;;;;;23.43;12.20;;;4.40;94.20;;;;;;5076615;28;20032;-63
2022/03/13 06:30:29;;;;;;;25.95;12.35;;;4.30;94.60;;;;;;5075460;28;20060;-64
2022/03/13 06:32:56;;;;;;;21.77;12.00;;;4.20;95.60;;;;;;5076780;28;20025;-63
2022/03/13 06:35:23;;;;;;;26.17;13.07;;;4.50;95.60;;;;;;5076647;28;20041;-63
2022/03/13 06:37:51;;;;;;;20.30;11.35;;;4.70;96.10;;;;;;5075190;28;20027;-64
2022/03/13 06:40:19;;;;;;;19.73;10.98;;;4.80;96.90;;;;;;5076454;28;20109;-65
2022/03/13 06:42:46;;;;;;;21.95;12.23;;;4.70;97.20;;;;;;5076654;28;20527;-65
2022/03/13 06:45:12;;;;;;;28.58;12.38;;;4.80;97.60;;;;;;5078028;28;20082;-64
2022/03/13 06:47:39;;;;;;;23.88;12.52;;;4.90;97.80;;;;;;5078320;28;20044;-63
2022/03/13 06:50:06;;;;;;;23.38;12.65;;;4.90;98.20;;;;;;5075029;28;20028;-62
2022/03/13 06:52:32;;;;;;;22.25;12.00;;;5.00;98.20;;;;;;5076080;28;20028;-60
2022/03/13 06:54:57;;;;;;;24.77;13.03;;;5.00;98.20;;;;;;5077283;28;20070;-64
2022/03/13 06:57:23;;;;;;;27.17;13.83;;;4.90;98.70;;;;;;5075615;28;20539;-63
2022/03/13 06:59:48;;;;;;;24.53;13.50;;;4.80;99.10;;;;;;5075101;28;20016;-64
2022/03/13 07:02:17;;;;;;;25.35;12.35;;;4.80;99.40;;;;;;5077539;28;20493;-63
2022/03/13 07:04:47;;;;;;;21.25;12.00;;;5.00;99.40;;;;;;5077946;28;20043;-62
2022/03/13 07:07:20;;;;;;;23.35;13.15;;;5.20;98.90;;;;;;5077000;28;20029;-65
2022/03/13 07:09:51;;;;;;;20.27;12.27;;;5.20;98.80;;;;;;5076518;28;20033;-64
2022/03/13 07:12:20;;;;;;;25.17;12.52;;;5.30;98.20;;;;;;5075756;28;20401;-63
2022/03/13 07:14:48;;;;;;;24.13;14.07;;;5.20;98.40;;;;;;5078610;28;20028;-65
2022/03/13 07:17:18;;;;;;;23.27;13.45;;;5.20;98.20;;;;;;5078381;28;20111;-64
2022/03/13 07:19:47;;;;;;;22.70;12.35;;;5.40;98.30;;;;;;5076453;28;20013;-65
2022/03/13 07:22:17;;;;;;;23.50;12.80;;;5.60;97.40;;;;;;5075029;28;20059;-64
2022/03/13 07:24:46;;;;;;;25.85;13.57;;;5.90;96.50;;;;;;5076009;28;20094;-64
2022/03/13 07:27:13;;;;;;;22.83;13.10;;;5.90;96.40;;;;;;5075756;28;20025;-65
2022/03/13 07:29:39;;;;;;;24.48;14.07;;;5.90;96.50;;;;;;5074139;28;20059;-64
2022/03/13 07:32:05;;;;;;;27.83;14.87;;;5.80;96.50;;;;;;5075553;28;20033;-66
2022/03/13 07:34:31;;;;;;;23.05;13.77;;;5.90;96.50;;;;;;5075534;28;20043;-65
2022/03/13 07:36:56;;;;;;;23.13;12.27;;;6.20;95.70;;;;;;5075864;28;20493;-67
2022/03/13 07:39:22;;;;;;;26.50;13.83;;;6.30;95.70;;;;;;5075821;28;20024;-68
2022/03/13 07:41:48;;;;;;;22.83;13.43;;;6.40;95.80;;;;;;5075802;28;20085;-67
2022/03/13 07:44:14;;;;;;;25.08;13.73;;;6.60;95.00;;;;;;5075645;28;20095;-66
2022/03/13 07:46:40;;;;;;;24.77;13.45;;;6.80;93.80;;;;;;5075840;28;20238;-66
2022/03/13 07:49:06;;;;;;;28.33;13.85;;;7.00;93.20;;;;;;5076405;28;20113;-69
2022/03/13 07:51:34;;;;;;;21.87;13.73;;;7.00;92.40;;;;;;5077166;28;20101;-69
2022/03/13 07:54:01;;;;;;;22.52;13.50;;;6.90;92.40;;;;;;5075461;28;20071;-66
2022/03/13 07:56:27;;;;;;;24.13;15.43;;;6.90;93.60;;;;;;5074337;28;20040;-66
2022/03/13 07:58:53;;;;;;;24.67;14.48;;;7.00;93.90;;;;;;5075130;28;20048;-65
2022/03/13 08:01:19;;;;;;;29.95;14.32;;;7.00;93.60;;;;;;5074163;28;20473;-67
2022/03/13 08:03:45;;;;;;;21.50;13.77;;;7.10;93.10;;;;;;5075036;28;20020;-67
2022/03/13 08:06:11;;;;;;;25.98;13.85;;;7.10;92.60;;;;;;5074726;28;20086;-66
2022/03/13 08:08:37;;;;;;;24.27;13.68;;;7.10;92.30;;;;;;5073456;28;20024;-66
2022/03/13 08:11:03;;;;;;;28.83;14.90;;;7.20;92.30;;;;;;5074796;28;20059;-66
2022/03/13 08:13:29;;;;;;;25.48;14.40;;;7.30;92.20;;;;;;5074834;28;20032;-67
2022/03/13 08:15:55;;;;;;;24.43;15.30;;;7.40;91.70;;;;;;5073549;28;20029;-66
2022/03/13 08:18:21;;;;;;;24.60;13.57;;;7.50;91.80;;;;;;5075469;28;20025;-65
2022/03/13 08:20:47;;;;;;;23.70;14.00;;;7.40;91.20;;;;;;5074693;28;20047;-68
2022/03/13 08:23:14;;;;;;;24.85;14.25;;;7.30;91.40;;;;;;5074650;28;20028;-68
2022/03/13 08:25:41;;;;;;;23.27;14.07;;;7.40;91.20;;;;;;5074261;28;20059;-67
2022/03/13 08:28:09;;;;;;;23.98;14.70;;;7.50;91.20;;;;;;5073059;28;20079;-68
2022/03/13 08:30:35;;;;;;;25.10;14.95;;;7.60;90.70;;;;;;5074368;28;20169;-67
2022/03/13 08:33:01;;;;;;;25.25;14.68;;;7.70;90.50;;;;;;5074620;28;20036;-68
2022/03/13 08:35:28;;;;;;;25.75;13.95;;;7.80;90.20;;;;;;5074279;28;20025;-69
2022/03/13 08:37:54;;;;;;;29.92;14.60;;;7.90;90.00;;;;;;5072753;28;20021;-69
2022/03/13 08:40:20;;;;;;;25.13;14.27;;;8.00;89.60;;;;;;5073029;28;20032;-68
2022/03/13 08:42:45;;;;;;;30.42;14.32;;;8.10;88.40;;;;;;5074137;28;20028;-69
2022/03/13 08:45:12;;;;;;;26.17;14.50;;;8.30;87.80;;;;;;5074217;28;20170;-68
2022/03/13 08:47:41;;;;;;;22.92;14.18;;;8.40;87.00;;;;;;5074003;28;20032;-71
2022/03/13 08:50:08;;;;;;;21.77;13.57;;;8.60;86.00;;;;;;5073961;28;20021;-68
2022/03/13 08:52:35;;;;;;;31.20;15.07;;;8.90;85.80;;;;;;5074195;28;20028;-68
2022/03/13 08:55:02;;;;;;;25.27;14.88;;;9.10;84.10;;;;;;5073497;28;20477;-69
2022/03/13 08:57:27;;;;;;;25.08;14.63;;;9.10;83.10;;;;;;5073846;28;20035;-68
2022/03/13 08:59:54;;;;;;;24.33;14.77;;;9.10;83.00;;;;;;5074146;28;20024;-68
2022/03/13 09:02:22;;;;;;;25.25;14.65;;;9.20;82.60;;;;;;5073728;28;20020;-67
2022/03/13 09:04:48;;;;;;;25.67;14.85;;;9.20;82.50;;;;;;5073417;28;20027;-68
2022/03/13 09:07:13;;;;;;;24.20;15.07;;;9.40;82.10;;;;;;5072417;28;20032;-68
2022/03/13 09:09:39;;;;;;;26.80;15.97;;;9.50;81.50;;;;;;5072348;28;20067;-68
2022/03/13 09:12:06;;;;;;;24.47;15.70;;;9.60;81.10;;;;;;5073703;28;20366;-69
2022/03/13 09:14:34;;;;;;;25.35;15.27;;;10.40;78.80;;;;;;5073245;28;20020;-68
2022/03/13 09:17:01;;;;;;;23.83;14.77;;;12.40;74.20;;;;;;5073298;28;20628;-67
2022/03/13 09:19:27;;;;;;;;;;;14.90;66.50;;;;;;5073910;28;20115;-69
2022/03/13 09:21:52;;;;;;;22.60;15.40;;;17.30;59.70;;;;;;5073595;28;19951;-66
2022/03/13 09:24:18;;;;;;;23.15;15.48;;;19.00;55.20;;;;;;5073459;28;20074;-69
2022/03/13 09:26:45;;;;;;;25.88;18.25;;;19.60;52.90;;;;;;5073172;28;20093;-67
2022/03/13 09:29:11;;;;;;;19.52;15.43;;;20.30;51.60;;;;;;5073159;28;20476;-67
2022/03/13 09:31:36;;;;;;;20.58;15.88;;;21.10;50.30;;;;;;5072768;28;20032;-69
2022/03/13 09:34:02;;;;;;;20.52;15.65;;;21.90;48.40;;;;;;5073334;28;20025;-69
2022/03/13 09:36:28;;;;;;;22.92;15.73;;;22.70;47.50;;;;;;5073234;28;20028;-68
2022/03/13 09:38:54;;;;;;;;;;;22.60;47.10;;;;;;5073862;28;20048;-70
2022/03/13 09:41:20;;;;;;;20.08;16.67;;;22.30;46.20;;;;;;5073682;28;19904;-67
2022/03/13 09:43:46;;;;;;;21.10;16.42;;;23.10;46.00;;;;;;5073572;28;20020;-68
2022/03/13 09:46:12;;;;;;;;;;;23.80;45.00;;;;;;5072170;28;20033;-68
2022/03/13 09:48:38;;;;;;;21.63;16.37;;;23.30;44.70;;;;;;5073407;28;20001;-68
2022/03/13 09:51:04;;;;;;;22.08;16.40;;;22.40;45.70;;;;;;5073175;28;20017;-68
2022/03/13 09:53:31;;;;;;;23.02;17.33;;;20.70;47.00;;;;;;5073127;28;20374;-69
2022/03/13 09:55:57;;;;;;;22.17;16.52;;;19.60;48.70;;;;;;5071457;28;20473;-67
2022/03/13 09:58:22;;;;;;;22.42;17.50;;;19.40;49.50;;;;;;5071688;28;20418;-68
2022/03/13 10:00:48;;;;;;;20.42;16.67;;;19.80;49.20;;;;;;5073439;28;20103;-69
2022/03/13 10:03:14;;;;;;;;;;;20.40;49.40;;;;;;5073580;28;20025;-68
2022/03/13 10:05:45;;;;;;;23.17;17.00;;;21.10;47.60;;;;;;5071335;28;19912;-69
2022/03/13 10:08:12;;;;;;;26.70;17.88;;;22.00;46.70;;;;;;5072741;28;20512;-68
2022/03/13 10:10:43;;;;;;;20.10;15.63;;;22.60;46.00;;;;;;5073114;28;20037;-68
2022/03/13 10:13:10;;;;;;;22.60;17.27;;;23.90;44.90;;;;;;5072499;28;20082;-68
2022/03/13 10:15:49;;;;;;;18.30;15.55;;;25.30;43.40;;;;;;5073233;28;20095;-66
2022/03/13 10:18:19;;;;;;;19.05;15.80;;;25.70;42.70;;;;;;5077002;28;20056;-67
2022/03/13 10:20:47;;;;;;;20.35;16.65;;;26.40;42.00;;;;;;5077282;28;20496;-67
2022/03/13 10:23:18;;;;;;;22.27;16.20;;;27.00;41.40;;;;;;5073674;28;20021;-67
2022/03/13 10:25:46;;;;;;;19.77;16.27;;;28.00;40.70;;;;;;5073488;28;20059;-67
2022/03/13 10:28:30;;;;;;;17.95;15.75;;;29.00;39.50;;;;;;5073738;28;20032;-67
2022/03/13 10:30:59;;;;;;;21.45;18.10;;;28.70;39.10;;;;;;5076081;28;20353;-68
2022/03/13 10:33:42;;;;;;;21.10;17.75;;;27.40;39.90;;;;;;5075467;28;20063;-66
2022/03/13 10:36:14;;;;;;;19.90;16.13;;;26.90;40.90;;;;;;5074691;28;20058;-66
2022/03/13 10:38:41;;;;;;;18.83;16.13;;;26.30;40.20;;;;;;5073473;28;20024;-65
2022/03/13 10:41:12;;;;;;;22.02;17.27;;;26.70;40.40;;;;;;5074433;28;20069;-65
2022/03/13 10:43:50;;;;;;;20.42;18.23;;;27.00;40.50;;;;;;5076747;28;20476;-66
2022/03/13 10:46:27;;;;;;;21.33;16.55;;;26.50;40.60;;;;;;5076783;28;20017;-66
2022/03/13 10:48:54;;;;;;;21.58;17.55;;;26.40;40.30;;;;;;5075931;28;20032;-66
2022/03/13 10:51:45;;;;;;;21.33;18.38;;;26.20;40.80;;;;;;5075565;28;20027;-64
2022/03/13 10:54:27;;;;;;;24.90;18.55;;;25.30;41.10;;;;;;5076391;28;20052;-65
2022/03/13 10:57:05;;;;;;;25.45;19.73;;;23.00;43.40;;;;;;5076243;28;20027;-65
2022/03/13 10:59:30;;;;;;;23.88;18.55;;;23.30;43.40;;;;;;5075253;28;20033;-65
2022/03/13 11:02:22;;;;;;;30.08;17.83;;;23.90;43.40;;;;;;5076273;28;20078;-65
2022/03/13 11:04:50;;;;;;;22.63;17.73;;;24.80;42.10;;;;;;5076247;28;20094;-66
2022/03/13 11:07:17;;;;;;;21.67;17.92;;;25.10;41.70;;;;;;5076725;28;20050;-66
2022/03/13 11:09:43;;;;;;;23.08;18.73;;;23.90;42.30;;;;;;5076045;28;20021;-66
2022/03/13 11:12:15;;;;;;;;;;;22.10;44.30;;;;;;5076599;28;20352;-65
2022/03/13 11:14:42;;;;;;;25.42;18.38;;;20.90;45.90;;;;;;5074851;28;19915;-65
2022/03/13 11:17:11;;;;;;;26.33;19.23;;;20.20;47.10;;;;;;5076012;28;20029;-65
2022/03/13 11:19:39;;;;;;;28.58;20.52;;;19.50;48.10;;;;;;5074682;28;20035;-67
2022/03/13 11:22:06;;;;;;;27.15;18.80;;;18.50;49.80;;;;;;5075794;28;20017;-64
2022/03/13 11:24:32;;;;;;;26.60;19.00;;;17.70;50.80;;;;;;5075729;28;20070;-65
2022/03/13 11:26:58;;;;;;;29.08;18.60;;;17.00;52.40;;;;;;5075779;28;20029;-66
2022/03/13 11:29:43;;;;;;;27.20;18.83;;;16.40;53.40;;;;;;5076517;28;20353;-65
2022/03/13 11:32:45;;;;;;;31.08;18.48;;;16.20;53.90;;;;;;5074433;28;20020;-66
2022/03/13 11:35:13;;;;;;;29.50;18.55;;;15.80;54.30;;;;;;5075614;28;20028;-67
2022/03/13 11:37:40;;;;;;;27.27;18.40;;;15.30;55.30;;;;;;5075946;28;20033;-64
2022/03/13 11:40:09;;;;;;;28.25;17.88;;;15.10;56.10;;;;;;5074496;28;20111;-66
2022/03/13 11:42:49;;;;;;;27.67;17.48;;;14.80;56.80;;;;;;5074230;28;20040;-66
2022/03/13 11:45:28;;;;;;;31.63;18.60;;;14.60;57.20;;;;;;5075150;28;20031;-66
2022/03/13 11:47:55;;;;;;;30.33;17.63;;;14.50;57.70;;;;;;5075338;28;20089;-65
2022/03/13 11:51:03;;;;;;;28.08;18.27;;;14.50;57.90;;;;;;5075226;28;20108;-66
2022/03/13 11:53:44;;;;;;;27.73;16.77;;;14.60;57.80;;;;;;5010823;28;20026;-65
2022/03/13 11:56:20;;;;;;;28.02;17.38;;;14.70;57.90;;;;;;5068939;28;20036;-66
2022/03/13 11:58:48;;;;;;;29.45;18.58;;;14.70;58.00;;;;;;5076751;28;20028;-65
2022/03/13 12:01:30;;;;;;;28.95;18.33;;;14.70;58.20;;;;;;5077767;28;20474;-67
2022/03/13 12:04:05;;;;;;;30.35;17.92;;;14.70;57.80;;;;;;5076314;28;20020;-65
2022/03/13 12:06:48;;;;;;;27.70;17.05;;;14.80;58.00;;;;;;5075399;28;20489;-65
2022/03/13 12:09:27;;;;;;;30.17;17.63;;;14.80;58.00;;;;;;5075352;28;20040;-65
2022/03/13 12:11:56;;;;;;;34.13;18.58;;;15.00;58.00;;;;;;5073557;28;20116;-65
2022/03/13 12:14:57;;;;;;;28.50;16.75;;;15.00;57.50;;;;;;5075244;28;20047;-67
2022/03/13 12:17:28;;;;;;;24.98;16.27;;;15.20;57.70;;;;;;5075038;28;20021;-65
2022/03/13 12:19:56;;;;;;;24.88;15.63;;;15.30;57.30;;;;;;5074987;28;20020;-65
2022/03/13 12:22:25;;;;;;;29.05;18.10;;;15.30;57.10;;;;;;5074938;28;20017;-65
2022/03/13 12:24:56;;;;;;;28.92;17.17;;;15.40;56.90;;;;;;5074649;28;20021;-68
2022/03/13 12:27:23;;;;;;;31.52;19.52;;;15.30;57.10;;;;;;5075195;28;20021;-65
2022/03/13 12:29:58;;;;;;;25.83;16.83;;;15.40;56.90;;;;;;5073637;28;20056;-64
2022/03/13 12:32:33;;;;;;;23.65;16.17;;;15.40;57.00;;;;;;5075090;28;20435;-65
2022/03/13 12:35:01;;;;;;;32.58;18.02;;;15.50;56.80;;;;;;5074704;28;20473;-65
2022/03/13 12:37:27;;;;;;;28.17;18.17;;;15.60;56.50;;;;;;5073103;28;20115;-65
2022/03/13 12:39:57;;;;;;;32.13;18.85;;;15.60;56.40;;;;;;5075013;28;20048;-65